createdAt,value
2023-10-06T00:05:50.331Z,101485.88
2023-10-06T00:35:53.224Z,101502.30
2023-10-06T01:05:57.120Z,101491.61
2023-10-06T01:36:00.114Z,101515.24
2023-10-06T02:06:04.269Z,101512.70
2023-10-06T02:36:07.401Z,101496.25
2023-10-06T03:06:10.429Z,101495.61
2023-10-06T03:36:13.771Z,101541.02
2023-10-06T04:06:17.323Z,101553.38
2023-10-06T04:36:20.228Z,101543.91
2023-10-06T05:06:24.300Z,101556.80
2023-10-06T05:36:27.377Z,101560.84
2023-10-06T06:06:30.395Z,101564.92
2023-10-06T06:36:33.749Z,101566.28
2023-10-06T07:06:37.751Z,101555.17
2023-10-06T07:36:41.416Z,101548.38
2023-10-06T08:06:44.812Z,101553.30
2023-10-06T08:36:48.391Z,101511.89
2023-10-06T09:06:51.595Z,101506.39
2023-10-06T09:36:55.230Z,101481.96
2023-10-06T10:06:58.831Z,101460.13
2023-10-06T10:37:01.732Z,101380.76
2023-10-06T11:07:06.517Z,101365.38
2023-10-06T11:37:09.553Z,101322.45
2023-10-06T12:07:12.675Z,101275.75
2023-10-06T12:37:16.028Z,101254.38
2023-10-06T13:07:19.328Z,101221.27
2023-10-06T13:37:22.297Z,101116.53
2023-10-06T14:07:25.821Z,101079.19
2023-10-06T14:37:28.827Z,101031.82
2023-10-06T15:07:32.682Z,100972.84
2023-10-06T15:37:35.608Z,100937.70
2023-10-06T16:07:40.749Z,100903.52
2023-10-06T16:37:43.894Z,100889.90
2023-10-06T17:07:48.532Z,100895.78
2023-10-06T17:37:51.645Z,100865.76
2023-10-06T18:07:55.587Z,100827.35
2023-10-06T18:37:58.677Z,100783.97
2023-10-06T19:08:02.956Z,100740.02
2023-10-06T19:38:05.946Z,100709.22
2023-10-06T20:08:09.612Z,100670.50
2023-10-06T20:38:12.547Z,100647.73
2023-10-06T21:08:16.544Z,100630.23
2023-10-06T21:38:19.491Z,100596.80
2023-10-06T22:08:23.546Z,100575.45
2023-10-06T22:38:27.658Z,100548.20
2023-10-06T23:08:30.904Z,100510.30
2023-10-06T23:38:34.283Z,100477.23
